TimeCST,TemperatureF,Dew PointF,Humidity,Sea Level PressureIn,VisibilityMPH,Wind Direction,Wind SpeedMPH,Gust SpeedMPH,PrecipitationIn,Events,Conditions,WindDirDegrees,DateUTC
12:23 AM,42.8,32.0,66,30.09,2.5,NE,9.2,-,N/A,,Haze,40,2014-02-10 06:23:00
12:36 AM,42.8,30.2,61,30.10,4.0,NE,11.5,-,N/A,,Haze,50,2014-02-10 06:36:00
12:53 AM,42.1,32.0,67,30.09,3.0,NE,10.4,-,N/A,,Haze,50,2014-02-10 06:53:00
1:02 AM,42.8,32.0,66,30.11,2.5,NE,9.2,-,N/A,,Haze,40,2014-02-10 07:02:00
1:53 AM,41.0,32.0,70,30.10,1.2,NE,8.1,-,N/A,,Haze,50,2014-02-10 07:53:00
2:36 AM,41.0,32.0,70,30.09,2.5,NE,8.1,-,N/A,,Haze,40,2014-02-10 08:36:00
2:53 AM,39.9,32.0,73,30.09,2.0,NNE,9.2,-,N/A,,Haze,30,2014-02-10 08:53:00
3:23 AM,39.2,32.0,75,30.10,3.0,NNE,12.7,18.4,N/A,,Haze,30,2014-02-10 09:23:00
3:53 AM,39.9,32.0,73,30.11,4.0,NNE,10.4,-,N/A,,Haze,20,2014-02-10 09:53:00
4:53 AM,39.0,32.0,76,30.12,5.0,NNE,9.2,-,0.00,Rain,Light Rain,20,2014-02-10 10:53:00
5:53 AM,37.9,32.0,79,30.13,4.0,NE,12.7,16.1,N/A,,Haze,40,2014-02-10 11:53:00
6:53 AM,37.0,37.0,100,30.18,8.0,NE,11.5,21.9,N/A,,Overcast,40,2014-02-10 12:53:00
7:07 AM,37.4,-9999,N/A,30.17,8.0,NE,10.4,-,N/A,,Overcast,40,2014-02-10 13:07:00
7:21 AM,37.4,-9999,N/A,30.18,4.0,NE,10.4,-,N/A,,Haze,40,2014-02-10 13:21:00
7:53 AM,36.0,-9999,N/A,30.20,4.0,NE,11.5,-,0.00,,Haze,50,2014-02-10 13:53:00
8:23 AM,35.6,-9999,N/A,30.20,2.5,NNE,10.4,19.6,N/A,,Overcast,30,2014-02-10 14:23:00
8:53 AM,35.1,-9999,N/A,30.21,2.5,NE,10.4,-,N/A,,Overcast,40,2014-02-10 14:53:00
9:15 AM,35.6,-9999,N/A,30.22,3.0,NE,12.7,18.4,N/A,,Overcast,50,2014-02-10 15:15:00
9:26 AM,35.6,-9999,N/A,30.22,2.5,NE,10.4,-,N/A,,Overcast,40,2014-02-10 15:26:00
9:48 AM,35.6,-9999,N/A,30.23,3.0,NE,13.8,-,N/A,,Overcast,50,2014-02-10 15:48:00
9:53 AM,35.1,-9999,N/A,30.23,3.0,ENE,13.8,-,N/A,,Overcast,60,2014-02-10 15:53:00
10:38 AM,35.6,-9999,N/A,30.24,4.0,NE,9.2,-,N/A,,Haze,40,2014-02-10 16:38:00
10:53 AM,35.1,-9999,N/A,30.23,4.0,NNE,10.4,-,N/A,,Haze,30,2014-02-10 16:53:00
11:53 AM,36.0,-9999,N/A,30.23,7.0,NNE,10.4,19.6,N/A,,Overcast,30,2014-02-10 17:53:00
12:00 PM,35.6,-9999,N/A,30.22,5.0,NNE,10.4,-,N/A,,Haze,30,2014-02-10 18:00:00
12:16 PM,35.6,32.0,87,30.22,5.0,NE,12.7,20.7,N/A,,Overcast,40,2014-02-10 18:16:00
12:53 PM,35.1,32.0,89,30.20,6.0,NNE,9.2,-,N/A,,Overcast,30,2014-02-10 18:53:00
1:53 PM,35.1,32.0,89,30.19,5.0,NNE,10.4,-,N/A,,Overcast,20,2014-02-10 19:53:00
2:53 PM,36.0,32.0,86,30.17,8.0,NNE,11.5,19.6,N/A,,Overcast,30,2014-02-10 20:53:00
3:53 PM,35.1,32.0,89,30.17,5.0,NE,10.4,-,N/A,,Overcast,40,2014-02-10 21:53:00
4:24 PM,35.6,32.0,87,30.16,7.0,NNE,12.7,-,N/A,,Overcast,30,2014-02-10 22:24:00
4:50 PM,35.6,30.2,81,30.16,7.0,NNE,8.1,-,N/A,,Overcast,30,2014-02-10 22:50:00
4:53 PM,36.0,30.9,82,30.17,7.0,NNE,11.5,-,N/A,,Overcast,30,2014-02-10 22:53:00
5:05 PM,35.6,30.2,81,30.17,8.0,NE,10.4,-,N/A,,Overcast,40,2014-02-10 23:05:00
5:53 PM,36.0,30.9,82,30.18,7.0,NNE,6.9,-,N/A,,Overcast,20,2014-02-10 23:53:00
6:23 PM,35.6,28.4,75,30.19,10.0,NNE,9.2,-,N/A,,Overcast,30,2014-02-11 00:23:00
6:48 PM,35.6,28.4,75,30.18,10.0,NE,6.9,-,N/A,,Overcast,40,2014-02-11 00:48:00
6:53 PM,35.1,28.9,78,30.19,10.0,NE,8.1,-,N/A,,Overcast,40,2014-02-11 00:53:00
7:02 PM,35.6,28.4,75,30.19,10.0,NE,8.1,-,N/A,,Overcast,40,2014-02-11 01:02:00
7:53 PM,35.1,28.0,76,30.20,10.0,NNE,9.2,-,N/A,,Overcast,30,2014-02-11 01:53:00
8:53 PM,35.1,26.1,70,30.23,10.0,NNE,9.2,-,N/A,,Overcast,20,2014-02-11 02:53:00
9:43 PM,35.6,24.8,65,30.22,10.0,NNE,10.4,-,N/A,,Overcast,30,2014-02-11 03:43:00
9:53 PM,35.1,25.0,67,30.23,10.0,NNE,10.4,-,N/A,,Overcast,20,2014-02-11 03:53:00
10:53 PM,35.1,25.0,67,30.23,10.0,NNE,10.4,-,N/A,,Overcast,30,2014-02-11 04:53:00
11:53 PM,35.1,23.0,61,30.23,10.0,NE,10.4,-,N/A,,Overcast,40,2014-02-11 05:53:00